Time;durP1;ratioP1;P1;durP2;ratioP2;P2;SDS_P1;SDS_P2;PMS_P1;PMS_P2;Temp;Humidity;BMP_temperature;BMP_pressure;BME280_temperature;BME280_humidity;BME280_pressure;Samples;Min_cycle;Max_cycle;Signal;HPM_P1;HPM_P2
2024/01/31 00:01:53;;;;;;;;;;;;;;;2.72;69.06;101605.30;137177;1276;22392;-73
2024/01/31 00:04:54;;;;;;;;;;;;;;;2.73;69.26;101606.29;137180;1276;22390;-76
2024/01/31 00:07:55;;;;;;;;;;;;;;;2.74;69.41;101603.42;137116;1276;22373;-74
2024/01/31 00:10:55;;;;;;;;;;;;;;;2.75;69.35;101598.98;137083;1276;22383;-73
2024/01/31 00:13:56;;;;;;;;;;;;;;;2.77;69.40;101600.99;137145;1276;23189;-74
2024/01/31 00:16:58;;;;;;;;;;;;;;;2.79;69.60;101600.86;137128;1276;22419;-76
2024/01/31 00:19:59;;;;;;;;;;;;;;;2.84;69.58;101603.60;137122;1271;22390;-75
2024/01/31 00:22:59;;;;;;;;;;;;;;;2.87;69.54;101602.05;137178;1276;22391;-74
2024/01/31 00:26:00;;;;;;;;;;;;;;;2.89;69.53;101603.81;137125;1276;22371;-74
2024/01/31 00:29:01;;;;;;;;;;;;;;;2.92;69.59;101603.13;137143;1269;22427;-73
2024/01/31 00:32:01;;;;;;;;;;;;;;;2.96;69.56;101604.70;136967;1276;23091;-74
2024/01/31 00:35:02;;;;;;;;;;;;;;;2.99;69.58;101605.43;137132;1276;22357;-74
2024/01/31 00:38:03;;;;;;;;;;;;;;;2.99;69.57;101606.61;137152;1276;22414;-74
2024/01/31 00:41:04;;;;;;;;;;;;;;;2.99;69.64;101607.67;137190;1276;22398;-74
2024/01/31 00:44:05;;;;;;;;;;;;;;;2.98;69.71;101604.96;137185;1276;22405;-74
2024/01/31 00:47:05;;;;;;;;;;;;;;;2.98;69.69;101598.64;137190;1276;22415;-73
2024/01/31 00:50:06;;;;;;;;;;;;;;;3.00;69.71;101600.66;136918;1276;22419;-74
2024/01/31 00:53:07;;;;;;;;;;;;;;;3.01;69.92;101603.04;137153;1276;22448;-75
2024/01/31 00:56:10;;;;;;;;;;;;;;;3.03;69.71;101598.20;137144;1276;23176;-73
2024/01/31 00:59:13;;;;;;;;;;;;;;;3.07;69.93;101598.89;137168;1276;22364;-74
2024/01/31 01:02:14;;;;;;;;;;;;;;;3.10;69.93;101596.93;137140;1276;22392;-73
2024/01/31 01:05:14;;;;;;;;;;;;;;;3.15;69.78;101600.52;137057;1276;23237;-74
2024/01/31 01:08:15;;;;;;;;;;;;;;;3.19;69.94;101601.36;137164;1276;22389;-73
2024/01/31 01:11:15;;;;;;;;;;;;;;;3.22;69.79;101600.90;136989;1276;22470;-73
2024/01/31 01:14:18;;;;;;;;;;;;;;;3.22;69.82;101597.89;137140;1276;22444;-74
2024/01/31 01:17:19;;;;;;;;;;;;;;;3.23;69.80;101598.57;137195;1276;22449;-73
2024/01/31 01:20:20;;;;;;;;;;;;;;;3.21;70.14;101599.88;137171;1272;22375;-73
2024/01/31 01:23:20;;;;;;;;;;;;;;;3.17;69.89;101596.59;137156;1276;22418;-74
2024/01/31 01:26:21;;;;;;;;;;;;;;;3.13;69.91;101598.70;137158;1276;22369;-74
2024/01/31 01:29:21;;;;;;;;;;;;;;;3.11;69.94;101600.40;137151;1276;22429;-74
2024/01/31 01:32:22;;;;;;;;;;;;;;;3.08;69.98;101604.04;137169;1276;22481;-73
2024/01/31 01:35:23;;;;;;;;;;;;;;;3.05;69.90;101606.14;137117;1276;22400;-73
2024/01/31 01:38:24;;;;;;;;;;;;;;;3.03;70.12;101607.10;137155;1276;22412;-74
2024/01/31 01:41:24;;;;;;;;;;;;;;;3.05;70.11;101608.21;137116;1276;22401;-77
2024/01/31 01:44:25;;;;;;;;;;;;;;;3.07;70.23;101610.05;137160;1276;22392;-73
2024/01/31 01:47:25;;;;;;;;;;;;;;;3.08;70.21;101613.13;137109;1276;22399;-73
2024/01/31 01:50:26;;;;;;;;;;;;;;;3.10;70.31;101609.90;137173;1271;22410;-74
2024/01/31 01:53:26;;;;;;;;;;;;;;;3.11;70.38;101607.73;137125;1276;23640;-74
2024/01/31 01:56:27;;;;;;;;;;;;;;;3.14;70.26;101603.02;137201;1277;22424;-74
2024/01/31 01:59:28;;;;;;;;;;;;;;;3.18;70.48;101602.46;137129;1276;22341;-74
2024/01/31 02:02:29;;;;;;;;;;;;;;;3.22;70.40;101601.38;137149;1276;22433;-73
2024/01/31 02:05:31;;;;;;;;;;;;;;;3.27;70.45;101601.30;137143;1276;22423;-74
2024/01/31 02:08:32;;;;;;;;;;;;;;;3.30;70.32;101599.34;137175;1277;22469;-74
2024/01/31 02:11:35;;;;;;;;;;;;;;;3.33;70.48;101602.88;137143;1277;22404;-73
2024/01/31 02:14:36;;;;;;;;;;;;;;;3.35;70.33;101600.83;137161;1277;22387;-73
2024/01/31 02:17:37;;;;;;;;;;;;;;;3.36;70.34;101602.36;137160;1277;22392;-73
2024/01/31 02:20:37;;;;;;;;;;;;;;;3.37;70.52;101600.73;137150;1277;23182;-78
2024/01/31 02:23:38;;;;;;;;;;;;;;;3.39;70.72;101599.59;137181;1273;22340;-73
2024/01/31 02:26:38;;;;;;;;;;;;;;;3.40;70.39;101595.83;137159;1276;22372;-74
2024/01/31 02:29:39;;;;;;;;;;;;;;;3.42;70.58;101592.28;137170;1276;23066;-73
2024/01/31 02:32:40;;;;;;;;;;;;;;;3.42;70.77;101590.67;137133;1277;22377;-75
2024/01/31 02:35:40;;;;;;;;;;;;;;;3.43;70.53;101593.05;136954;1277;22404;-73
2024/01/31 02:38:41;;;;;;;;;;;;;;;3.43;70.68;101593.73;137156;1276;22451;-74
2024/01/31 02:41:42;;;;;;;;;;;;;;;3.43;70.60;101588.16;137107;1277;22364;-74
2024/01/31 02:44:42;;;;;;;;;;;;;;;3.45;70.75;101582.64;137149;1277;22424;-73
2024/01/31 02:47:43;;;;;;;;;;;;;;;3.47;70.68;101574.14;137181;1276;23502;-74
2024/01/31 02:50:43;;;;;;;;;;;;;;;3.48;70.95;101572.46;137146;1273;22411;-73
2024/01/31 02:53:44;;;;;;;;;;;;;;;3.51;70.92;101573.23;137164;1274;22381;-73
2024/01/31 02:56:44;;;;;;;;;;;;;;;3.52;70.94;101575.20;137134;1276;23032;-73
2024/01/31 02:59:45;;;;;;;;;;;;;;;3.56;71.12;101577.81;137155;1276;22368;-74
2024/01/31 03:02:46;;;;;;;;;;;;;;;3.61;70.96;101587.19;137138;1277;22394;-74
2024/01/31 03:05:47;;;;;;;;;;;;;;;3.65;70.98;101588.33;137186;1276;22464;-73
2024/01/31 03:08:48;;;;;;;;;;;;;;;3.68;71.21;101591.53;137153;1276;22382;-74
2024/01/31 03:11:48;;;;;;;;;;;;;;;3.69;70.91;101593.55;137176;1277;22384;-73
2024/01/31 03:14:49;;;;;;;;;;;;;;;3.69;70.94;101590.92;137094;1277;23115;-74
2024/01/31 03:17:57;;;;;;;;;;;;;;;3.70;70.87;101588.40;137148;1276;22412;-74
2024/01/31 03:21:08;;;;;;;;;;;;;;;3.72;70.95;101584.63;137126;1276;23001;-74
2024/01/31 03:24:12;;;;;;;;;;;;;;;3.72;71.01;101584.81;137093;1276;22254;-73
2024/01/31 03:27:13;;;;;;;;;;;;;;;3.69;71.02;101595.45;137171;1276;22361;-73
2024/01/31 03:30:14;;;;;;;;;;;;;;;3.70;71.03;101593.33;137128;1276;22459;-74
2024/01/31 03:33:15;;;;;;;;;;;;;;;3.71;71.02;101594.48;137143;1276;22387;-73
2024/01/31 03:36:23;;;;;;;;;;;;;;;3.73;71.01;101592.42;137130;1276;22377;-74
2024/01/31 03:39:27;;;;;;;;;;;;;;;3.75;70.97;101590.73;137157;1277;22301;-74
2024/01/31 03:42:27;;;;;;;;;;;;;;;3.75;71.00;101594.59;137136;1277;22415;-75
2024/01/31 03:45:28;;;;;;;;;;;;;;;3.74;71.03;101600.08;137125;1277;22292;-74
2024/01/31 03:48:29;;;;;;;;;;;;;;;3.72;71.22;101602.13;137118;1277;23224;-74
2024/01/31 03:51:29;;;;;;;;;;;;;;;3.71;71.06;101601.45;137095;1277;23533;-74
2024/01/31 03:54:30;;;;;;;;;;;;;;;3.73;71.20;101600.16;137147;1275;23008;-74
2024/01/31 03:57:30;;;;;;;;;;;;;;;3.70;71.07;101600.83;137108;1276;23439;-75
2024/01/31 04:00:31;;;;;;;;;;;;;;;3.68;71.29;101604.43;137175;1276;23128;-74
2024/01/31 04:03:31;;;;;;;;;;;;;;;3.64;71.24;101604.33;137149;1276;22382;-74
2024/01/31 04:06:32;;;;;;;;;;;;;;;3.59;71.41;101606.70;137119;1276;22495;-74
2024/01/31 04:09:33;;;;;;;;;;;;;;;3.55;71.40;101605.14;137166;1276;22393;-73
2024/01/31 04:12:33;;;;;;;;;;;;;;;3.53;71.30;101605.43;137127;1276;23182;-74
2024/01/31 04:15:35;;;;;;;;;;;;;;;3.51;71.48;101607.81;137160;1276;22401;-74
2024/01/31 04:18:36;;;;;;;;;;;;;;;3.51;71.92;101608.20;137149;1276;23113;-74
2024/01/31 04:21:36;;;;;;;;;;;;;;;3.52;71.76;101608.98;137136;1276;23347;-75
2024/01/31 04:24:37;;;;;;;;;;;;;;;3.56;71.78;101611.05;137146;1272;23201;-74
2024/01/31 04:27:37;;;;;;;;;;;;;;;3.61;71.90;101609.22;137184;1270;22379;-74
2024/01/31 04:30:38;;;;;;;;;;;;;;;3.68;71.96;101605.32;137127;1276;22395;-73
2024/01/31 04:33:38;;;;;;;;;;;;;;;3.72;71.73;101605.98;136917;1276;22418;-73
2024/01/31 04:36:39;;;;;;;;;;;;;;;3.77;71.93;101608.86;137101;1276;23174;-74
2024/01/31 04:39:39;;;;;;;;;;;;;;;3.81;71.82;101615.73;137102;1276;23053;-73
2024/01/31 04:42:40;;;;;;;;;;;;;;;3.86;71.76;101620.27;137130;1276;23517;-75
2024/01/31 04:45:41;;;;;;;;;;;;;;;3.87;71.76;101619.86;137145;1276;23422;-74
2024/01/31 04:48:41;;;;;;;;;;;;;;;3.87;71.85;101617.89;137145;1276;23612;-74
2024/01/31 04:51:42;;;;;;;;;;;;;;;3.91;71.89;101619.65;137133;1273;23245;-74
2024/01/31 04:54:43;;;;;;;;;;;;;;;3.93;71.74;101621.40;137189;1276;23548;-75
2024/01/31 04:57:45;;;;;;;;;;;;;;;3.97;71.89;101624.34;137129;1274;23175;-74
2024/01/31 05:00:45;;;;;;;;;;;;;;;3.99;71.71;101629.81;137150;1276;23399;-74
2024/01/31 05:03:46;;;;;;;;;;;;;;;4.00;71.73;101625.21;137135;1276;23217;-73
2024/01/31 05:06:46;;;;;;;;;;;;;;;4.02;71.99;101631.42;137109;1276;23102;-74
2024/01/31 05:09:47;;;;;;;;;;;;;;;4.03;71.90;101631.36;137097;1276;22979;-74
2024/01/31 05:12:47;;;;;;;;;;;;;;;4.02;71.53;101635.23;137130;1276;23169;-73
2024/01/31 05:15:48;;;;;;;;;;;;;;;4.01;71.69;101632.88;137083;1276;23115;-72
2024/01/31 05:18:49;;;;;;;;;;;;;;;3.98;71.88;101636.00;137143;1276;22396;-72
2024/01/31 05:21:50;;;;;;;;;;;;;;;3.96;71.83;101638.41;137090;1276;22529;-74
2024/01/31 05:24:51;;;;;;;;;;;;;;;3.94;71.91;101638.70;136940;1276;23187;-71
2024/01/31 05:27:52;;;;;;;;;;;;;;;3.93;72.04;101640.34;137122;1276;23122;-75
2024/01/31 05:30:52;;;;;;;;;;;;;;;3.91;71.63;101644.45;137123;1276;22444;-75
2024/01/31 05:34:02;;;;;;;;;;;;;;;3.91;72.13;101642.36;137160;1276;23163;-74
2024/01/31 05:37:05;;;;;;;;;;;;;;;3.92;72.02;101640.36;137123;1276;23040;-76
2024/01/31 05:40:08;;;;;;;;;;;;;;;3.93;71.92;101637.71;137145;1276;23763;-77
2024/01/31 05:43:09;;;;;;;;;;;;;;;3.94;72.01;101640.24;137105;1276;22629;-74
2024/01/31 05:46:10;;;;;;;;;;;;;;;3.96;72.12;101642.45;137165;1276;23192;-74
2024/01/31 05:49:20;;;;;;;;;;;;;;;3.96;72.32;101643.66;137207;1276;22349;-76
2024/01/31 05:52:20;;;;;;;;;;;;;;;3.96;72.08;101635.05;137074;1276;22410;-76
2024/01/31 05:55:21;;;;;;;;;;;;;;;3.97;72.23;101636.77;136959;1276;22381;-79
2024/01/31 05:58:23;;;;;;;;;;;;;;;3.97;72.21;101637.68;137127;1265;22390;-80
2024/01/31 06:01:24;;;;;;;;;;;;;;;3.95;72.32;101636.72;136955;1276;23466;-78
2024/01/31 06:04:24;;;;;;;;;;;;;;;3.94;72.34;101636.23;137101;1276;23175;-76
2024/01/31 06:07:25;;;;;;;;;;;;;;;3.94;72.42;101633.09;136924;1276;22444;-78
2024/01/31 06:10:26;;;;;;;;;;;;;;;3.93;72.60;101631.53;137124;1276;23675;-76
2024/01/31 06:13:39;;;;;;;;;;;;;;;3.94;72.55;101633.27;137118;1276;22371;-74
2024/01/31 06:16:40;;;;;;;;;;;;;;;3.95;72.52;101632.54;136958;1276;23454;-76
2024/01/31 06:19:41;;;;;;;;;;;;;;;3.95;72.63;101640.19;137153;1276;22453;-76
2024/01/31 06:22:42;;;;;;;;;;;;;;;3.96;72.84;101643.48;137140;1268;22355;-74
2024/01/31 06:25:42;;;;;;;;;;;;;;;3.95;72.66;101647.89;137182;1276;22439;-75
2024/01/31 06:28:43;;;;;;;;;;;;;;;3.96;72.80;101645.77;136941;1276;23075;-75
2024/01/31 06:32:13;;;;;;;;;;;;;;;3.97;73.02;101646.92;137146;1276;22288;-76
2024/01/31 06:35:18;;;;;;;;;;;;;;;3.98;73.04;101651.77;137132;1277;22469;-76
2024/01/31 06:38:18;;;;;;;;;;;;;;;3.99;73.30;101655.02;137190;1276;22429;-76
2024/01/31 06:41:19;;;;;;;;;;;;;;;4.03;73.25;101660.42;137152;1276;22392;-74
2024/01/31 06:44:20;;;;;;;;;;;;;;;4.06;73.29;101659.20;137163;1276;22388;-74
2024/01/31 06:47:20;;;;;;;;;;;;;;;4.08;73.25;101665.91;137133;1276;22402;-76
2024/01/31 06:50:21;;;;;;;;;;;;;;;4.12;73.60;101664.46;137177;1277;22444;-74
2024/01/31 06:53:22;;;;;;;;;;;;;;;4.13;73.48;101663.16;136951;1277;23215;-75
2024/01/31 06:56:39;;;;;;;;;;;;;;;;;;;;;
2024/01/31 06:59:52;;;;;;;;;;;;;;;4.17;73.57;101668.21;137128;1277;22391;-74
2024/01/31 07:03:00;;;;;;;;;;;;;;;4.19;73.97;101664.94;137119;1273;22291;-75
2024/01/31 07:06:01;;;;;;;;;;;;;;;4.20;73.92;101664.52;137125;1277;22388;-75
2024/01/31 07:09:04;;;;;;;;;;;;;;;4.20;73.97;101673.48;137162;1277;22407;-74
2024/01/31 07:12:07;;;;;;;;;;;;;;;4.19;73.94;101675.25;137155;1273;22289;-74
2024/01/31 07:15:12;;;;;;;;;;;;;;;4.18;74.06;101674.80;137125;1277;22395;-78
2024/01/31 07:18:12;;;;;;;;;;;;;;;4.17;73.95;101679.41;137146;1273;22384;-76
2024/01/31 07:21:22;;;;;;;;;;;;;;;4.18;74.18;101683.75;137155;1276;22432;-76
2024/01/31 07:24:23;;;;;;;;;;;;;;;4.16;74.24;101685.58;137178;1276;22627;-74
2024/01/31 07:27:24;;;;;;;;;;;;;;;4.15;74.46;101689.67;137194;1274;22414;-72
2024/01/31 07:30:25;;;;;;;;;;;;;;;4.15;74.64;101692.52;137092;1276;22379;-79
2024/01/31 07:33:35;;;;;;;;;;;;;;;4.13;74.78;101692.80;137110;1276;22397;-77
2024/01/31 07:36:38;;;;;;;;;;;;;;;4.12;74.89;101696.54;137174;1277;22326;-76
2024/01/31 07:43:32;;;;;;;;;;;;;;;4.12;75.06;101704.95;137119;1277;22459;-78
2024/01/31 07:50:39;;;;;;;;;;;;;;;;;;;;;
2024/01/31 07:53:51;;;;;;;;;;;;;;;4.17;75.26;101710.95;137131;1276;22443;-75
2024/01/31 07:56:52;;;;;;;;;;;;;;;4.20;75.49;101714.48;137143;1275;22417;-77
2024/01/31 07:59:52;;;;;;;;;;;;;;;4.23;75.62;101711.46;137175;1272;22388;-80
2024/01/31 08:02:53;;;;;;;;;;;;;;;4.28;75.64;101707.48;137147;1276;22382;-80
2024/01/31 08:05:54;;;;;;;;;;;;;;;4.33;75.72;101709.85;137198;1273;22398;-80
2024/01/31 08:08:54;;;;;;;;;;;;;;;4.39;75.75;101709.38;137117;1276;22408;-80
2024/01/31 08:11:56;;;;;;;;;;;;;;;4.43;76.01;101709.63;137192;1276;22473;-80
2024/01/31 08:14:56;;;;;;;;;;;;;;;4.48;75.75;101703.55;137169;1276;22390;-80
2024/01/31 08:17:57;;;;;;;;;;;;;;;4.55;75.94;101702.62;137159;1276;22462;-79
2024/01/31 08:21:00;;;;;;;;;;;;;;;4.62;76.02;101702.92;137186;1276;22394;-80
2024/01/31 08:24:01;;;;;;;;;;;;;;;4.70;75.84;101701.59;137167;1276;23180;-80
2024/01/31 08:27:02;;;;;;;;;;;;;;;4.75;75.95;101708.83;136971;1276;22393;-80
2024/01/31 08:30:03;;;;;;;;;;;;;;;4.81;76.13;101714.42;137191;1276;22391;-80
2024/01/31 08:33:04;;;;;;;;;;;;;;;4.86;76.24;101708.85;137172;1276;22376;-80
2024/01/31 08:36:08;;;;;;;;;;;;;;;4.91;76.22;101715.06;137216;1276;23576;-80
2024/01/31 08:39:09;;;;;;;;;;;;;;;4.96;76.10;101711.83;137162;1276;22453;-80
2024/01/31 08:42:30;;;;;;;;;;;;;;;4.98;76.21;101713.09;137119;1276;22410;-80
2024/01/31 08:45:38;;;;;;;;;;;;;;;5.01;76.02;101711.54;137154;1276;23102;-80
2024/01/31 08:49:09;;;;;;;;;;;;;;;5.03;76.06;101705.77;137004;1276;22362;-80
2024/01/31 08:52:15;;;;;;;;;;;;;;;5.05;76.24;101701.98;137102;1276;23459;-80
2024/01/31 08:55:16;;;;;;;;;;;;;;;5.07;76.35;101700.10;137200;1276;22394;-80
2024/01/31 08:58:17;;;;;;;;;;;;;;;5.10;76.50;101709.02;137177;1270;22374;-80
2024/01/31 09:01:17;;;;;;;;;;;;;;;5.17;76.49;101722.27;137182;1276;22440;-80
2024/01/31 09:04:18;;;;;;;;;;;;;;;5.27;76.61;101717.85;137178;1276;22451;-79
2024/01/31 09:07:19;;;;;;;;;;;;;;;5.37;76.63;101715.77;137144;1276;22397;-83
2024/01/31 09:10:21;;;;;;;;;;;;;;;5.52;76.55;101718.91;137117;1276;22396;-79
2024/01/31 09:13:22;;;;;;;;;;;;;;;5.70;76.70;101718.16;137104;1276;22405;-81
2024/01/31 09:16:22;;;;;;;;;;;;;;;5.86;76.70;101716.98;136980;1270;22390;-81
2024/01/31 09:19:23;;;;;;;;;;;;;;;6.00;76.29;101717.86;137052;1276;23033;-80
2024/01/31 09:22:24;;;;;;;;;;;;;;;6.13;76.17;101724.22;137066;1276;22389;-82
2024/01/31 09:25:28;;;;;;;;;;;;;;;6.23;75.92;101725.35;137011;1276;22473;-82
2024/01/31 09:28:28;;;;;;;;;;;;;;;6.32;75.93;101725.45;137131;1276;22307;-82
2024/01/31 09:31:29;;;;;;;;;;;;;;;6.42;75.76;101730.45;136941;1276;251979;-81
2024/01/31 09:34:30;;;;;;;;;;;;;;;6.50;75.70;101723.91;137116;1269;22935;-81
2024/01/31 09:37:32;;;;;;;;;;;;;;;6.60;75.63;101728.75;137100;1276;22423;-81
2024/01/31 09:40:32;;;;;;;;;;;;;;;6.63;75.29;101730.98;137105;1276;22541;-81
2024/01/31 09:43:34;;;;;;;;;;;;;;;6.62;74.96;101726.65;137132;1276;23043;-81
2024/01/31 09:46:35;;;;;;;;;;;;;;;6.62;74.84;101726.15;137112;1276;22395;-81
2024/01/31 09:49:36;;;;;;;;;;;;;;;6.64;74.75;101722.29;137106;1276;22428;-81
2024/01/31 09:52:39;;;;;;;;;;;;;;;6.70;74.76;101728.02;137144;1276;23040;-79
2024/01/31 09:55:41;;;;;;;;;;;;;;;6.87;74.81;101729.03;137101;1276;22394;-81
2024/01/31 09:58:42;;;;;;;;;;;;;;;7.31;75.16;101727.98;137101;1273;22429;-81
2024/01/31 10:01:42;;;;;;;;;;;;;;;7.78;74.81;101725.39;137135;1276;22360;-80
2024/01/31 10:04:47;;;;;;;;;;;;;;;7.93;73.81;101719.91;137112;1276;22402;-81
2024/01/31 10:07:48;;;;;;;;;;;;;;;7.92;73.25;101708.01;137096;1276;22386;-80
2024/01/31 10:11:20;;;;;;;;;;;;;;;7.81;72.75;101701.86;137094;1276;22406;-81
2024/01/31 10:14:34;;;;;;;;;;;;;;;7.71;72.56;101698.20;137099;1276;22381;-82
2024/01/31 10:17:42;;;;;;;;;;;;;;;7.65;72.93;101696.02;137112;1276;22411;-81
2024/01/31 10:20:52;;;;;;;;;;;;;;;7.75;73.18;101688.75;137108;1276;22295;-80
2024/01/31 10:24:10;;;;;;;;;;;;;;;;;;;;;
2024/01/31 10:27:10;;;;;;;;;;;;;;;8.42;72.64;101681.91;137115;1276;22273;-82
2024/01/31 10:30:13;;;;;;;;;;;;;;;8.43;71.96;101677.63;137121;1270;22427;-81
2024/01/31 10:33:14;;;;;;;;;;;;;;;8.34;71.77;101674.58;137163;1276;22413;-81
2024/01/31 10:36:17;;;;;;;;;;;;;;;8.21;71.63;101670.83;137127;1276;22417;-81
2024/01/31 10:39:21;;;;;;;;;;;;;;;8.00;71.38;101675.14;137184;1276;22459;-81
2024/01/31 10:42:25;;;;;;;;;;;;;;;7.75;71.52;101668.64;136992;1276;22452;-81
2024/01/31 10:45:36;;;;;;;;;;;;;;;7.58;71.88;101670.08;137118;1276;22276;-81
2024/01/31 10:48:54;;;;;;;;;;;;;;;7.46;72.01;101665.83;137098;1276;22420;-81
2024/01/31 10:52:15;;;;;;;;;;;;;;;7.43;72.30;101668.34;137164;1276;22347;-81
2024/01/31 10:55:19;;;;;;;;;;;;;;;7.46;72.63;101675.53;137113;1276;22383;-81
2024/01/31 10:58:21;;;;;;;;;;;;;;;7.48;72.57;101671.14;137103;1276;22431;-81
2024/01/31 11:01:49;;;;;;;;;;;;;;;7.49;72.70;101679.68;137131;1270;23307;-82
2024/01/31 11:04:49;;;;;;;;;;;;;;;7.52;72.66;101668.40;137084;1270;22597;-81
2024/01/31 11:07:52;;;;;;;;;;;;;;;7.60;73.17;101670.43;137117;1276;22408;-80
2024/01/31 11:10:56;;;;;;;;;;;;;;;7.72;72.89;101659.17;137098;1276;22362;-82
2024/01/31 11:14:19;;;;;;;;;;;;;;;7.82;73.06;101654.98;137063;1276;22520;-81
2024/01/31 11:17:46;;;;;;;;;;;;;;;7.90;72.78;101647.86;137035;1276;22510;-80
2024/01/31 11:20:52;;;;;;;;;;;;;;;8.01;72.92;101643.50;137072;1276;22260;-81
2024/01/31 11:23:56;;;;;;;;;;;;;;;8.15;72.61;101634.21;137061;1276;23214;-80
2024/01/31 11:27:00;;;;;;;;;;;;;;;8.27;72.92;101636.62;137077;1276;23176;-81
2024/01/31 11:30:42;;;;;;;;;;;;;;;8.39;72.56;101632.94;137020;1270;22442;-76
2024/01/31 11:33:42;;;;;;;;;;;;;;;8.44;72.35;101634.20;137158;1276;22530;-81
2024/01/31 11:36:45;;;;;;;;;;;;;;;8.44;71.87;101620.59;137104;1276;22414;-81
2024/01/31 11:39:46;;;;;;;;;;;;;;;8.44;71.90;101627.12;137065;1276;23202;-80
2024/01/31 11:42:47;;;;;;;;;;;;;;;8.39;71.71;101623.12;137112;1276;23154;-75
2024/01/31 11:45:48;;;;;;;;;;;;;;;8.30;71.62;101622.14;137073;1276;23393;-78
2024/01/31 11:49:02;;;;;;;;;;;;;;;8.24;71.83;101623.83;137095;1274;23254;-79
2024/01/31 11:52:03;;;;;;;;;;;;;;;8.32;72.29;101617.82;137129;1276;22936;-78
2024/01/31 11:55:28;;;;;;;;;;;;;;;8.43;72.14;101621.23;137107;1276;22582;-79
2024/01/31 11:58:30;;;;;;;;;;;;;;;8.53;72.14;101623.28;137105;1276;23274;-78
2024/01/31 12:01:31;;;;;;;;;;;;;;;8.54;71.60;101620.55;137113;1276;22372;-79
2024/01/31 12:04:32;;;;;;;;;;;;;;;8.46;71.78;101626.56;137126;1276;22450;-78
2024/01/31 12:07:33;;;;;;;;;;;;;;;8.40;71.70;101632.53;137097;1276;23182;-79
2024/01/31 12:10:36;;;;;;;;;;;;;;;8.30;71.65;101626.42;137125;1276;23502;-79
2024/01/31 12:13:37;;;;;;;;;;;;;;;8.21;71.86;101624.95;137126;1276;23724;-79
2024/01/31 12:17:01;;;;;;;;;;;;;;;8.11;71.79;101624.48;137108;1276;23239;-78
2024/01/31 12:20:08;;;;;;;;;;;;;;;8.03;71.87;101618.18;137022;1276;22351;-78
2024/01/31 12:23:09;;;;;;;;;;;;;;;7.95;71.97;101616.49;137113;1276;23191;-79
2024/01/31 12:26:10;;;;;;;;;;;;;;;7.89;71.96;101615.89;137128;1276;22360;-79
2024/01/31 12:29:18;;;;;;;;;;;;;;;7.87;72.27;101617.92;137128;1276;22401;-79
2024/01/31 12:32:19;;;;;;;;;;;;;;;7.81;72.04;101615.57;137123;1274;23151;-79
2024/01/31 12:35:19;;;;;;;;;;;;;;;7.76;72.07;101609.97;137097;1276;22403;-78
2024/01/31 12:38:20;;;;;;;;;;;;;;;7.71;72.14;101611.55;137080;1276;23094;-79
2024/01/31 12:41:20;;;;;;;;;;;;;;;7.67;72.21;101616.27;137119;1276;22366;-78
2024/01/31 12:44:21;;;;;;;;;;;;;;;7.61;72.29;101615.80;137105;1276;23273;-79
2024/01/31 12:47:22;;;;;;;;;;;;;;;7.55;72.35;101618.86;137105;1276;22372;-79
2024/01/31 12:50:23;;;;;;;;;;;;;;;7.52;72.60;101619.60;137102;1276;22467;-78
2024/01/31 12:53:24;;;;;;;;;;;;;;;7.53;72.82;101616.22;137113;1270;22436;-79
2024/01/31 12:56:24;;;;;;;;;;;;;;;7.56;73.03;101610.81;137105;1276;23180;-79
2024/01/31 12:59:27;;;;;;;;;;;;;;;7.65;73.39;101612.15;137087;1276;22411;-79
2024/01/31 13:02:28;;;;;;;;;;;;;;;7.67;73.12;101613.79;137069;1273;23054;-79
2024/01/31 13:05:29;;;;;;;;;;;;;;;7.68;73.10;101613.76;137094;1276;23253;-79
2024/01/31 13:08:34;;;;;;;;;;;;;;;7.67;73.14;101617.48;137100;1276;22428;-79
2024/01/31 13:11:36;;;;;;;;;;;;;;;7.68;73.12;101610.92;137148;1276;22325;-79
2024/01/31 13:14:36;;;;;;;;;;;;;;;7.64;72.97;101607.84;137094;1276;22383;-79
2024/01/31 13:17:37;;;;;;;;;;;;;;;7.57;72.92;101604.28;137111;1276;22389;-79
2024/01/31 13:20:41;;;;;;;;;;;;;;;7.53;73.00;101597.52;137061;1276;22371;-79
2024/01/31 13:23:57;;;;;;;;;;;;;;;7.47;73.03;101592.14;137095;1276;22400;-79
2024/01/31 13:26:58;;;;;;;;;;;;;;;7.44;73.33;101587.83;137127;1276;22388;-79
2024/01/31 13:29:59;;;;;;;;;;;;;;;7.39;73.28;101585.33;137101;1276;22532;-78
2024/01/31 13:32:59;;;;;;;;;;;;;;;7.37;73.38;101583.23;137079;1276;22373;-79
2024/01/31 13:36:00;;;;;;;;;;;;;;;7.35;73.46;101583.52;137064;1276;22376;-79
2024/01/31 13:39:02;;;;;;;;;;;;;;;7.35;73.61;101589.65;137078;1276;22470;-79
2024/01/31 13:42:03;;;;;;;;;;;;;;;7.37;73.63;101587.98;137098;1276;22380;-79
2024/01/31 13:45:04;;;;;;;;;;;;;;;7.38;73.42;101581.17;137073;1276;22373;-79
2024/01/31 13:48:08;;;;;;;;;;;;;;;7.33;73.38;101570.09;137080;1270;22392;-78
2024/01/31 13:51:12;;;;;;;;;;;;;;;7.32;73.43;101569.63;137060;1276;22391;-79
2024/01/31 13:54:15;;;;;;;;;;;;;;;7.35;73.41;101568.19;136959;1276;22414;-79
2024/01/31 13:57:16;;;;;;;;;;;;;;;7.36;73.33;101566.73;137095;1276;22395;-78
2024/01/31 14:00:16;;;;;;;;;;;;;;;7.36;73.25;101565.86;137073;1276;22368;-79
2024/01/31 14:03:17;;;;;;;;;;;;;;;7.35;73.24;101561.35;137101;1273;22415;-78
2024/01/31 14:06:18;;;;;;;;;;;;;;;7.29;72.93;101557.05;136997;1276;22431;-79
2024/01/31 14:09:21;;;;;;;;;;;;;;;7.20;72.95;101559.91;137131;1276;22457;-79
2024/01/31 14:12:26;;;;;;;;;;;;;;;7.16;72.97;101558.29;137107;1276;22383;-79
2024/01/31 14:16:07;;;;;;;;;;;;;;;;;;;;;
2024/01/31 14:19:13;;;;;;;;;;;;;;;7.09;73.16;101555.96;137068;1276;22450;-79
2024/01/31 14:22:17;;;;;;;;;;;;;;;7.06;72.98;101547.73;137103;1276;22292;-78
2024/01/31 14:25:18;;;;;;;;;;;;;;;7.02;72.84;101552.08;136952;1276;22540;-78
2024/01/31 14:28:18;;;;;;;;;;;;;;;6.97;72.98;101544.48;137112;1276;22447;-79
2024/01/31 14:31:26;;;;;;;;;;;;;;;6.95;72.85;101547.80;137103;1276;22416;-79
2024/01/31 14:34:27;;;;;;;;;;;;;;;6.94;72.76;101545.25;137106;1273;22288;-79
2024/01/31 14:37:31;;;;;;;;;;;;;;;6.91;72.84;101544.39;137111;1276;22580;-80
2024/01/31 14:40:37;;;;;;;;;;;;;;;6.87;72.90;101540.43;137116;1262;22394;-79
2024/01/31 14:43:37;;;;;;;;;;;;;;;6.85;72.92;101533.02;137130;1276;22272;-79
2024/01/31 14:46:39;;;;;;;;;;;;;;;6.80;72.68;101542.71;137099;1276;23113;-78
2024/01/31 14:49:40;;;;;;;;;;;;;;;6.76;72.67;101539.48;137086;1276;23083;-78
2024/01/31 14:53:10;;;;;;;;;;;;;;;;;;;;;
2024/01/31 14:56:48;;;;;;;;;;;;;;;;;;;;;
2024/01/31 15:00:18;;;;;;;;;;;;;;;6.70;72.84;101531.45;137096;1276;22433;-78
2024/01/31 15:03:22;;;;;;;;;;;;;;;6.67;72.86;101519.35;137122;1276;22307;-78
2024/01/31 15:06:23;;;;;;;;;;;;;;;6.64;72.85;101516.41;137128;1276;22376;-79
2024/01/31 15:09:23;;;;;;;;;;;;;;;6.61;72.85;101516.27;137123;1276;22455;-79
2024/01/31 15:12:24;;;;;;;;;;;;;;;6.55;73.00;101516.83;137142;1276;22391;-79
2024/01/31 15:15:44;;;;;;;;;;;;;;;;;;;;;
2024/01/31 15:19:08;;;;;;;;;;;;;;;6.39;73.11;101523.58;137068;1276;23271;-79
2024/01/31 15:22:40;;;;;;;;;;;;;;;;;;;;;
2024/01/31 15:25:54;;;;;;;;;;;;;;;6.25;73.38;101523.99;136863;1276;22460;-78
2024/01/31 15:28:57;;;;;;;;;;;;;;;6.20;73.45;101531.69;137132;1276;23142;-78
2024/01/31 15:31:58;;;;;;;;;;;;;;;6.19;73.50;101535.14;137095;1276;22371;-78
2024/01/31 15:34:59;;;;;;;;;;;;;;;6.18;73.61;101536.40;137121;1276;22468;-78
2024/01/31 15:37:59;;;;;;;;;;;;;;;6.17;73.85;101536.12;137140;1276;22423;-74
2024/01/31 15:41:00;;;;;;;;;;;;;;;6.18;74.03;101535.18;137084;1276;22386;-78
2024/01/31 15:44:04;;;;;;;;;;;;;;;6.17;73.94;101538.08;137104;1276;22392;-78
2024/01/31 15:47:05;;;;;;;;;;;;;;;6.13;74.08;101537.62;137141;1276;22408;-78
2024/01/31 15:50:06;;;;;;;;;;;;;;;6.09;74.29;101534.73;137134;1276;22447;-78
2024/01/31 15:53:06;;;;;;;;;;;;;;;6.06;74.38;101536.39;137126;1276;22414;-78
2024/01/31 15:56:07;;;;;;;;;;;;;;;6.03;74.44;101540.59;137147;1276;23036;-78
2024/01/31 15:59:08;;;;;;;;;;;;;;;6.01;74.57;101538.10;137107;1276;23189;-77
2024/01/31 16:02:08;;;;;;;;;;;;;;;5.97;74.82;101539.79;137133;1276;22436;-78